Flight Track Log - Related Links

Times and Time Zones

All times are in EDT time to prevent confusion due to time zone crossing. See the FSR411 flight status page for this flight to view local times or setup timezone preferences in your user account.

Time Position Orientation Groundspeed Altitude Reporting Facility
EDT Latitude Longitude Course Direction KTS MPH feet Rate Location/Type
Tue 02:02:55 PM 40.0758 -83.0831 266° West 154 177 1,200  Level Indianapolis Center
Tue 02:03:38 PM 40.0731 -83.1347 266° West 204 235 3,000 2,604 Climbing Indianapolis Center
Tue 02:03:48 PM 40.0731 -83.1433 270° West 195 224 3,500 3,417 Climbing Indianapolis Center
Tue 02:04:50 PM 40.0667 -83.2244 264° West 213 245 7,100 3,242 Climbing Indianapolis Center
Tue 02:05:52 PM 40.0567 -83.3200 262° West 267 307 10,200 2,244 Climbing Indianapolis Center
Tue 02:06:53 PM 40.0447 -83.4339 262° West 316 364 11,700 1,103 Climbing Indianapolis Center
Tue 02:08:00 PM 40.0498 -83.5625 273° West  Level FlightAware Approximate
Tue 02:08:57 PM 40.0086 -83.7125 273° West 363 418 13,600  Level Indianapolis Center
Tue 02:09:59 PM 39.9944 -83.8414 262° West 363 418 18,000 3,823 Climbing Indianapolis Center
Tue 02:11:01 PM 39.9808 -83.9722 262° West 365 420 21,500 2,323 Climbing Indianapolis Center
Tue 02:12:03 PM 39.9619 -84.1136 260° West 395 455 22,800 1,220 Climbing Indianapolis Center
Tue 02:13:04 PM 39.9381 -84.2839 260° West 398 458 24,000 585 Climbing Indianapolis Center
Tue 02:14:06 PM 39.9408 -84.4261 272° West 395 455 24,000  Level Indianapolis Center
Tue 02:15:08 PM 39.9472 -84.5719 273° West 403 464 24,000 -242 Level Indianapolis Center
Tue 02:16:10 PM 39.9539 -84.7200 273° West 409 471 23,500 -919 Descending Indianapolis Center
Tue 02:17:12 PM 39.9597 -84.8639 273° West 401 461 22,100 -726 Descending Indianapolis Center
Tue 02:18:14 PM 39.9656 -85.0297 273° West 392 451 22,000 -48 Descending Indianapolis Center
Tue 02:19:16 PM 39.9700 -85.1678 272° West 385 443 22,000  Level Indianapolis Center
Tue 02:20:18 PM 39.9764 -85.3089 273° West 391 450 22,000  Level Indianapolis Center
Tue 02:21:20 PM 39.9803 -85.4494 272° West 390 449 22,000  Level Indianapolis Center
Tue 02:22:22 PM 39.9847 -85.5897 272° West 390 449 22,000  Level Indianapolis Center
Tue 02:23:24 PM 39.9900 -85.7297 273° West 390 449 22,000  Level Indianapolis Center
Tue 02:24:26 PM 39.9944 -85.8989 272° West 392 451 22,000  Level Indianapolis Center
Tue 02:25:28 PM 39.9992 -86.0353 273° West 385 443 22,000 -581 Level Indianapolis Center
Tue 02:26:30 PM 40.0019 -86.1617 272° West 359 413 20,800 -968 Descending Indianapolis Center
Tue 02:27:32 PM 40.0058 -86.2925 272° West 365 420 20,000 -387 Descending Indianapolis Center
Tue 02:28:34 PM 40.0092 -86.4508 272° West 370 426 20,000 -624 Level Indianapolis Center
Tue 02:29:37 PM 40.0125 -86.5839 272° West 371 427 18,700 -1,536 Descending Indianapolis Center
Tue 02:30:39 PM 40.0158 -86.7164 272° West 370 426 16,800 -1,839 Descending Indianapolis Center
Tue 02:31:41 PM 40.0178 -86.8461 271° West 365 420 14,900 -1,306 Descending Indianapolis Center
Tue 02:32:43 PM 40.0208 -86.9686 272° West 349 402 14,100 -287 Descending Indianapolis Center
Tue 02:34:49 PM 40.0264 -87.2472 272° West 350 403 14,000 -258 Descending Chicago Center
Tue 02:35:49 PM 40.0275 -87.3739 271° West 354 407 13,300 -1,131 Descending Indianapolis Center
Tue 02:36:51 PM 40.0294 -87.4953 271° West 342 394 11,700 -1,113 Descending Indianapolis Center
Tue 02:37:53 PM 40.0317 -87.6172 271° West 339 390 11,000 -871 Descending Indianapolis Center
Tue 02:38:55 PM 40.0317 -87.7503 270° West 303 349 9,900 -1,452 Descending Indianapolis Center
Tue 02:39:57 PM 40.0336 -87.8469 272° West 274 315 8,000 -1,810 Descending Indianapolis Center
Tue 02:41:01 PM 40.0400 -87.9433 275° West 270 311 6,100 -1,762 Descending Chicago Center
Tue 02:42:03 PM 40.0556 -88.0397 282° West 265 305 4,300 -1,065 Descending Chicago Center
Tue 02:43:05 PM 40.0700 -88.1294 282° West 264 304 3,900 -387 Descending Chicago Center

Login

Don't have an account? Register now (free) for customized features, flight alerts, and more!